Time;durP1;ratioP1;P1;durP2;ratioP2;P2;SDS_P1;SDS_P2;PMS_P1;PMS_P2;Temp;Humidity;BMP_temperature;BMP_pressure;BME280_temperature;BME280_humidity;BME280_pressure;Samples;Min_cycle;Max_cycle;Signal;HPM_P1;HPM_P2
2021/01/24 00:00:44;;;;;;;15.23;7.70;;;2.60;99.90;;;;;;4911497;29;20028;-71
2021/01/24 00:03:10;;;;;;;22.48;8.50;;;2.50;99.90;;;;;;4911894;29;20500;-71
2021/01/24 00:05:36;;;;;;;19.60;8.25;;;2.60;99.90;;;;;;4911861;29;20088;-71
2021/01/24 00:08:01;;;;;;;14.98;8.05;;;2.60;99.90;;;;;;4911393;29;20029;-71
2021/01/24 00:10:27;;;;;;;12.75;7.45;;;2.60;99.90;;;;;;4911379;29;20036;-71
2021/01/24 00:12:52;;;;;;;11.85;7.22;;;2.60;99.90;;;;;;4911342;29;20029;-70
2021/01/24 00:15:18;;;;;;;13.55;7.43;;;2.60;99.90;;;;;;4911438;29;20028;-70
2021/01/24 00:17:44;;;;;;;15.52;7.45;;;2.70;99.90;;;;;;4911446;29;20049;-70
2021/01/24 00:20:10;;;;;;;17.23;8.30;;;2.70;99.90;;;;;;4910994;29;20089;-71
2021/01/24 00:22:37;;;;;;;21.80;7.78;;;2.70;99.90;;;;;;4911349;29;20028;-71
2021/01/24 00:25:04;;;;;;;16.17;7.53;;;2.60;99.90;;;;;;4911569;29;20036;-71
2021/01/24 00:27:30;;;;;;;15.65;7.90;;;2.60;99.90;;;;;;4910778;29;20052;-71
2021/01/24 00:29:56;;;;;;;16.63;8.07;;;2.60;99.90;;;;;;4911340;29;20033;-71
2021/01/24 00:32:21;;;;;;;17.75;7.90;;;2.60;99.90;;;;;;4911197;29;20068;-70
2021/01/24 00:34:47;;;;;;;12.40;5.68;;;2.50;99.90;;;;;;4909670;29;20496;-71
2021/01/24 00:37:13;;;;;;;17.50;8.55;;;2.50;99.90;;;;;;4910928;29;20037;-71
2021/01/24 00:39:40;;;;;;;21.08;7.53;;;2.50;99.90;;;;;;4911024;29;20039;-71
2021/01/24 00:42:07;;;;;;;18.15;7.78;;;2.50;99.90;;;;;;4911026;29;20042;-71
2021/01/24 00:44:33;;;;;;;17.80;7.75;;;2.40;99.90;;;;;;4911043;29;20493;-71
2021/01/24 00:46:58;;;;;;;17.83;7.82;;;2.40;99.90;;;;;;4911008;29;20029;-71
2021/01/24 00:49:24;;;;;;;12.20;6.30;;;2.40;99.90;;;;;;4910626;29;20028;-71
2021/01/24 00:51:49;;;;;;;14.85;6.75;;;2.40;99.90;;;;;;4911386;29;20028;-71
2021/01/24 00:54:15;;;;;;;18.38;7.95;;;2.40;99.90;;;;;;4910695;29;20381;-71
2021/01/24 00:56:40;;;;;;;16.92;7.63;;;2.40;99.90;;;;;;4910632;29;20044;-72
2021/01/24 00:59:07;;;;;;;16.73;8.23;;;2.40;99.90;;;;;;4910703;29;20028;-71
2021/01/24 01:01:33;;;;;;;12.80;7.38;;;2.30;99.90;;;;;;4909161;29;20028;-72
2021/01/24 01:03:58;;;;;;;16.40;7.50;;;2.30;99.90;;;;;;4909502;29;20040;-71
2021/01/24 01:06:24;;;;;;;13.25;6.78;;;2.20;99.90;;;;;;4910505;29;20075;-71
2021/01/24 01:08:50;;;;;;;16.90;7.70;;;2.20;99.90;;;;;;4909977;29;20040;-71
2021/01/24 01:11:15;;;;;;;19.08;7.95;;;2.20;99.90;;;;;;4910754;29;20036;-71
2021/01/24 01:13:41;;;;;;;12.18;5.70;;;2.20;99.90;;;;;;4910466;29;20028;-72
2021/01/24 01:16:06;;;;;;;16.75;6.93;;;2.20;99.90;;;;;;4909918;29;20067;-72
2021/01/24 01:18:33;;;;;;;16.83;8.02;;;2.20;99.90;;;;;;4910075;29;20069;-72
2021/01/24 01:20:58;;;;;;;20.75;8.02;;;2.20;99.90;;;;;;4909720;29;20025;-72
2021/01/24 01:23:24;;;;;;;13.52;7.28;;;2.20;99.90;;;;;;4909617;29;20040;-71
2021/01/24 01:25:52;;;;;;;14.23;6.85;;;2.20;99.90;;;;;;4910159;29;20039;-72
2021/01/24 01:28:18;;;;;;;14.75;6.82;;;2.20;99.90;;;;;;4909613;29;20092;-71
2021/01/24 01:30:43;;;;;;;14.45;6.72;;;2.20;99.90;;;;;;4908906;29;20032;-71
2021/01/24 01:33:09;;;;;;;14.02;6.80;;;2.30;99.90;;;;;;4910109;29;20029;-72
2021/01/24 01:35:35;;;;;;;15.75;7.50;;;2.30;99.90;;;;;;4909950;29;20028;-72
2021/01/24 01:38:01;;;;;;;11.35;5.53;;;2.40;99.90;;;;;;4909671;29;20044;-72
2021/01/24 01:40:27;;;;;;;17.52;6.88;;;2.40;99.90;;;;;;4910175;29;20029;-71
2021/01/24 01:42:55;;;;;;;14.43;6.43;;;2.40;99.90;;;;;;4909597;29;20037;-71
2021/01/24 01:45:21;;;;;;;18.25;7.00;;;2.30;99.90;;;;;;4909734;29;20033;-72
2021/01/24 01:47:46;;;;;;;14.43;6.28;;;2.30;99.90;;;;;;4909823;29;20052;-71
2021/01/24 01:50:12;;;;;;;14.25;7.45;;;2.40;99.90;;;;;;4909409;29;20024;-72
2021/01/24 01:52:37;;;;;;;15.15;7.13;;;2.40;99.90;;;;;;4909706;29;20041;-72
2021/01/24 01:55:03;;;;;;;15.45;7.60;;;2.40;99.90;;;;;;4909820;29;20057;-72
2021/01/24 01:57:29;;;;;;;15.48;6.93;;;2.40;99.90;;;;;;4909400;29;20036;-72
2021/01/24 01:59:54;;;;;;;17.73;7.35;;;2.40;99.90;;;;;;4908323;29;20103;-72
2021/01/24 02:02:52;;;;;;;11.18;5.53;;;2.40;99.90;;;;;;4909626;29;20029;-71
2021/01/24 02:05:45;;;;;;;13.73;6.50;;;2.40;99.90;;;;;;4909483;29;20020;-72
2021/01/24 02:08:21;;;;;;;13.70;6.50;;;2.50;99.90;;;;;;4909501;29;20401;-72
2021/01/24 02:10:55;;;;;;;13.52;6.03;;;2.50;99.90;;;;;;4909297;29;20036;-71
2021/01/24 02:13:41;;;;;;;12.40;6.25;;;2.50;99.90;;;;;;4909291;29;20031;-70
2021/01/24 02:16:09;;;;;;;13.20;6.55;;;2.50;99.90;;;;;;4909621;29;20036;-70
2021/01/24 02:18:36;;;;;;;18.77;7.40;;;2.50;99.90;;;;;;4909130;29;20072;-71
2021/01/24 02:21:31;;;;;;;22.10;7.93;;;2.50;99.90;;;;;;4909318;29;20025;-72
2021/01/24 02:24:00;;;;;;;16.73;7.45;;;2.50;99.90;;;;;;4909421;29;20092;-71
2021/01/24 02:26:53;;;;;;;23.27;8.10;;;2.50;99.90;;;;;;4908904;29;20056;-70
2021/01/24 02:29:38;;;;;;;17.77;7.47;;;2.50;99.90;;;;;;4909061;29;20044;-71
2021/01/24 02:32:06;;;;;;;12.93;6.10;;;2.60;99.90;;;;;;4909181;29;20037;-72
2021/01/24 02:34:37;;;;;;;16.45;7.40;;;2.60;99.90;;;;;;4909254;29;20468;-72
2021/01/24 02:37:04;;;;;;;11.95;6.07;;;2.60;99.90;;;;;;4909289;29;20036;-71
2021/01/24 02:39:31;;;;;;;14.57;5.82;;;2.60;99.90;;;;;;4909095;29;20111;-71
2021/01/24 02:41:57;;;;;;;12.18;5.97;;;2.60;99.90;;;;;;4908735;29;20032;-71
2021/01/24 02:44:24;;;;;;;14.13;5.82;;;2.60;99.90;;;;;;4909012;29;20028;-71
2021/01/24 02:46:50;;;;;;;15.32;7.15;;;2.50;99.90;;;;;;4908639;29;20029;-71
2021/01/24 02:49:16;;;;;;;12.88;6.32;;;2.60;99.90;;;;;;4908956;29;20036;-71
2021/01/24 02:51:42;;;;;;;14.85;6.13;;;2.60;99.90;;;;;;4908978;29;20060;-71
2021/01/24 02:54:09;;;;;;;14.48;7.13;;;2.60;99.90;;;;;;4904100;29;20036;-72
2021/01/24 02:56:36;;;;;;;9.70;5.90;;;2.60;99.90;;;;;;4909032;29;20037;-71
2021/01/24 02:59:03;;;;;;;13.55;5.65;;;2.60;99.90;;;;;;4907956;29;20080;-71
2021/01/24 03:01:30;;;;;;;11.05;5.28;;;2.60;99.90;;;;;;4908328;29;20049;-71
2021/01/24 03:03:56;;;;;;;14.73;6.28;;;2.50;99.90;;;;;;4890153;29;20105;-71
2021/01/24 03:06:21;;;;;;;11.27;6.00;;;2.60;99.90;;;;;;4890150;29;20033;-71
2021/01/24 03:08:47;;;;;;;12.07;5.88;;;2.60;99.90;;;;;;4889812;29;20082;-71
2021/01/24 03:11:18;;;;;;;13.90;6.63;;;2.50;99.90;;;;;;4890273;29;20029;-72
2021/01/24 03:13:57;;;;;;;11.90;5.20;;;2.60;99.90;;;;;;4890027;29;20037;-71
2021/01/24 03:16:24;;;;;;;17.52;6.00;;;2.60;99.90;;;;;;4889975;29;20021;-71
2021/01/24 03:18:51;;;;;;;14.80;7.22;;;2.60;99.90;;;;;;4889961;29;20072;-72
2021/01/24 03:21:18;;;;;;;12.40;5.63;;;2.60;99.90;;;;;;4889106;29;20033;-71
2021/01/24 03:23:44;;;;;;;14.38;5.85;;;2.60;99.90;;;;;;4889639;29;20040;-71
2021/01/24 03:26:10;;;;;;;13.32;6.10;;;2.60;99.90;;;;;;4890067;29;20367;-72
2021/01/24 03:28:37;;;;;;;16.58;7.18;;;2.60;99.90;;;;;;4889596;29;20049;-72
2021/01/24 03:31:05;;;;;;;15.48;6.35;;;2.60;99.90;;;;;;4890105;29;20112;-71
2021/01/24 03:33:33;;;;;;;14.23;6.28;;;2.60;99.90;;;;;;4890009;29;20131;-71
2021/01/24 03:35:58;;;;;;;10.38;5.70;;;2.60;99.90;;;;;;4889871;29;20036;-71
2021/01/24 03:38:24;;;;;;;11.45;5.50;;;2.60;99.90;;;;;;4888110;29;20041;-71
2021/01/24 03:40:49;;;;;;;21.77;7.35;;;2.60;99.90;;;;;;4890127;29;20588;-71
2021/01/24 03:43:15;;;;;;;13.77;6.00;;;2.60;99.90;;;;;;4889507;29;20033;-71
2021/01/24 03:45:41;;;;;;;15.23;5.82;;;2.60;99.90;;;;;;4891989;29;20108;-71
2021/01/24 03:48:06;;;;;;;10.10;5.35;;;2.60;99.90;;;;;;4893369;29;20029;-71
2021/01/24 03:50:32;;;;;;;12.13;6.93;;;2.60;99.90;;;;;;4893344;29;20037;-71
2021/01/24 03:52:57;;;;;;;20.25;7.28;;;2.60;99.90;;;;;;4891188;29;20060;-71
2021/01/24 03:55:23;;;;;;;13.80;6.10;;;2.60;99.90;;;;;;4891946;29;20429;-70
2021/01/24 03:57:48;;;;;;;12.90;6.45;;;2.50;99.90;;;;;;4892767;29;20041;-71
2021/01/24 04:00:14;;;;;;;15.60;6.18;;;2.50;99.90;;;;;;4892633;29;20390;-71
2021/01/24 04:02:40;;;;;;;15.70;5.93;;;2.50;99.90;;;;;;4893041;29;20029;-71
2021/01/24 04:05:07;;;;;;;11.07;5.32;;;2.50;99.90;;;;;;4892747;29;20033;-72
2021/01/24 04:07:33;;;;;;;14.98;7.10;;;2.50;99.90;;;;;;4893218;29;20032;-71
2021/01/24 04:09:59;;;;;;;14.00;6.45;;;2.50;99.90;;;;;;4891589;29;20146;-71
2021/01/24 04:12:24;;;;;;;11.95;6.07;;;2.50;99.90;;;;;;4892511;29;20033;-71
2021/01/24 04:14:50;;;;;;;11.40;5.07;;;2.50;99.90;;;;;;4892675;29;20039;-72
2021/01/24 04:17:15;;;;;;;9.55;5.35;;;2.50;99.90;;;;;;4892470;29;20041;-71
2021/01/24 04:19:41;;;;;;;9.88;5.65;;;2.40;99.90;;;;;;4892406;29;20085;-71
2021/01/24 04:22:07;;;;;;;13.70;6.32;;;2.40;99.90;;;;;;4892962;29;20136;-72
2021/01/24 04:24:32;;;;;;;9.95;5.50;;;2.40;99.90;;;;;;4892278;29;20072;-72
2021/01/24 04:26:58;;;;;;;9.93;5.55;;;2.40;99.90;;;;;;4891811;29;20124;-72
2021/01/24 04:29:23;;;;;;;16.02;6.25;;;2.40;99.90;;;;;;4892332;29;20044;-71
2021/01/24 04:31:49;;;;;;;15.68;5.85;;;2.40;99.90;;;;;;4892604;29;20029;-71
2021/01/24 04:34:14;;;;;;;12.18;5.85;;;2.40;99.90;;;;;;4892226;29;20040;-71
2021/01/24 04:36:40;;;;;;;12.18;5.80;;;2.40;99.90;;;;;;4892501;29;20033;-72
2021/01/24 04:39:06;;;;;;;10.63;6.03;;;2.40;99.90;;;;;;4891932;29;20025;-71
2021/01/24 04:41:35;;;;;;;15.15;5.40;;;2.30;99.90;;;;;;4892242;29;20037;-71
2021/01/24 04:44:04;;;;;;;13.23;6.28;;;2.30;99.90;;;;;;4892333;29;20035;-72
2021/01/24 04:46:31;;;;;;;11.25;5.55;;;2.30;99.90;;;;;;4892510;29;20029;-71
2021/01/24 04:48:58;;;;;;;16.00;6.82;;;2.40;99.90;;;;;;4891886;29;20089;-71
2021/01/24 04:51:24;;;;;;;10.93;5.60;;;2.20;99.90;;;;;;4906957;29;20039;-71
2021/01/24 04:53:50;;;;;;;14.20;6.65;;;2.20;99.90;;;;;;4910599;29;20033;-71
2021/01/24 04:56:16;;;;;;;14.82;6.53;;;2.20;99.90;;;;;;4910791;29;20029;-71
2021/01/24 04:58:42;;;;;;;13.43;6.25;;;2.20;99.90;;;;;;4910860;29;20044;-72
2021/01/24 05:01:08;;;;;;;14.55;6.57;;;2.20;99.90;;;;;;4910482;29;20469;-72
2021/01/24 05:03:35;;;;;;;22.40;6.50;;;2.20;99.90;;;;;;4910794;29;20024;-71
2021/01/24 05:06:00;;;;;;;13.30;6.88;;;2.10;99.90;;;;;;4911388;29;20027;-71
2021/01/24 05:08:30;;;;;;;14.95;7.15;;;2.10;99.90;;;;;;4910351;29;20037;-71
2021/01/24 05:11:05;;;;;;;13.40;6.40;;;2.10;99.90;;;;;;4910804;29;20039;-70
2021/01/24 05:13:31;;;;;;;14.65;6.82;;;2.10;99.90;;;;;;4910418;29;20039;-71
2021/01/24 05:15:57;;;;;;;13.35;6.55;;;2.10;99.90;;;;;;4909992;29;20088;-71
2021/01/24 05:18:24;;;;;;;13.25;7.45;;;2.00;99.90;;;;;;4910389;29;20044;-71
2021/01/24 05:20:54;;;;;;;10.23;5.78;;;2.00;99.90;;;;;;4910293;29;20033;-71
2021/01/24 05:23:24;;;;;;;14.13;6.57;;;1.90;99.90;;;;;;4909826;29;20025;-71
2021/01/24 05:25:53;;;;;;;14.30;7.47;;;1.90;99.90;;;;;;4910215;29;20024;-70
2021/01/24 05:28:25;;;;;;;12.13;6.07;;;1.90;99.90;;;;;;4909733;29;20048;-70
2021/01/24 05:31:01;;;;;;;12.82;7.10;;;1.90;99.90;;;;;;4910127;29;20032;-71
2021/01/24 05:33:26;;;;;;;16.35;7.63;;;1.90;99.90;;;;;;4910168;29;20037;-71
2021/01/24 05:35:52;;;;;;;16.70;7.03;;;1.80;99.90;;;;;;4909692;29;20040;-71
2021/01/24 05:38:29;;;;;;;19.65;8.18;;;1.80;99.90;;;;;;4910128;29;20044;-71
2021/01/24 05:41:07;;;;;;;18.30;8.10;;;1.70;99.90;;;;;;4909703;29;20092;-70
2021/01/24 05:43:43;;;;;;;16.17;6.93;;;1.70;99.90;;;;;;4909721;29;20091;-71
2021/01/24 05:46:10;;;;;;;13.20;7.07;;;1.70;99.90;;;;;;4909004;29;20029;-72
2021/01/24 05:48:45;;;;;;;15.68;6.78;;;1.70;99.90;;;;;;4909447;29;20032;-72
2021/01/24 05:51:13;;;;;;;20.63;7.63;;;1.70;99.90;;;;;;4909545;29;20056;-72
2021/01/24 05:53:44;;;;;;;12.02;6.88;;;1.60;99.90;;;;;;4909968;29;20446;-71
2021/01/24 05:56:14;;;;;;;19.02;7.25;;;1.70;99.90;;;;;;4909239;29;20028;-71
2021/01/24 05:58:40;;;;;;;9.98;6.28;;;1.60;99.90;;;;;;4908313;29;20048;-70
2021/01/24 06:01:08;;;;;;;14.60;6.90;;;1.70;99.90;;;;;;4909863;29;20024;-71
2021/01/24 06:03:36;;;;;;;16.73;7.70;;;1.60;99.90;;;;;;4909098;29;20465;-71
2021/01/24 06:06:04;;;;;;;13.25;6.68;;;1.60;99.90;;;;;;4910046;29;20027;-71
2021/01/24 06:08:30;;;;;;;13.40;6.20;;;1.60;99.90;;;;;;4909031;29;20044;-71
2021/01/24 06:10:58;;;;;;;16.83;6.85;;;1.60;99.90;;;;;;4909365;29;20036;-71
2021/01/24 06:13:26;;;;;;;20.05;7.07;;;1.50;99.90;;;;;;4909410;29;20040;-71
2021/01/24 06:15:53;;;;;;;12.55;7.32;;;1.60;99.90;;;;;;4909219;29;20064;-70
2021/01/24 06:18:53;;;;;;;14.60;6.18;;;1.50;99.90;;;;;;4906610;29;20096;-71
2021/01/24 06:21:42;;;;;;;15.65;6.88;;;1.50;99.90;;;;;;4906340;29;20037;-72
2021/01/24 06:24:18;;;;;;;11.65;6.25;;;1.50;99.90;;;;;;4908221;29;20040;-71
2021/01/24 06:26:47;;;;;;;15.32;8.13;;;1.50;99.90;;;;;;4907830;29;20037;-71
2021/01/24 06:29:14;;;;;;;19.65;7.28;;;1.50;99.90;;;;;;4909204;29;20037;-71
2021/01/24 06:31:47;;;;;;;17.77;7.28;;;1.50;99.90;;;;;;4908846;29;20028;-72
2021/01/24 06:34:13;;;;;;;11.73;6.95;;;1.50;99.90;;;;;;4908966;29;20065;-71
2021/01/24 06:37:01;;;;;;;16.05;7.95;;;1.50;99.90;;;;;;4908901;29;20425;-72
2021/01/24 06:39:45;;;;;;;13.88;5.95;;;1.50;99.90;;;;;;4909301;29;20037;-71
2021/01/24 06:42:10;;;;;;;19.40;7.25;;;1.50;99.90;;;;;;4908831;29;20032;-72
2021/01/24 06:44:40;;;;;;;15.27;5.97;;;1.50;99.90;;;;;;4908042;29;20509;-72
2021/01/24 06:47:27;;;;;;;14.05;6.82;;;1.50;99.90;;;;;;4909135;29;20061;-72
2021/01/24 06:49:53;;;;;;;14.20;6.57;;;1.50;99.90;;;;;;4898670;29;20585;-70
2021/01/24 06:52:21;;;;;;;11.77;6.32;;;1.50;99.90;;;;;;4908056;29;20032;-71
2021/01/24 06:54:48;;;;;;;16.38;6.90;;;1.50;99.90;;;;;;4908920;29;20037;-72
2021/01/24 06:57:15;;;;;;;22.75;7.72;;;1.50;99.90;;;;;;4907243;29;20080;-73
2021/01/24 06:59:40;;;;;;;14.35;6.53;;;1.50;99.90;;;;;;4908500;29;20052;-73
2021/01/24 07:02:29;;;;;;;19.65;7.30;;;1.50;99.90;;;;;;4909044;29;20035;-72
2021/01/24 07:05:09;;;;;;;13.23;6.70;;;1.60;99.90;;;;;;4908863;29;20096;-71
2021/01/24 07:07:57;;;;;;;17.23;7.65;;;1.60;99.90;;;;;;4908521;29;20116;-72
2021/01/24 07:10:37;;;;;;;13.25;7.78;;;1.60;99.90;;;;;;4909116;29;20044;-71
2021/01/24 07:13:25;;;;;;;14.23;7.13;;;1.60;99.90;;;;;;4908339;29;20115;-71
2021/01/24 07:15:59;;;;;;;15.93;8.32;;;1.50;99.90;;;;;;4908757;29;20028;-70
2021/01/24 07:18:24;;;;;;;19.30;7.88;;;1.60;99.90;;;;;;4908542;29;20052;-71
2021/01/24 07:20:52;;;;;;;14.98;7.05;;;1.50;99.90;;;;;;4910794;29;20036;-71
2021/01/24 07:23:18;;;;;;;11.43;6.25;;;1.60;99.90;;;;;;4912682;29;20037;-72
2021/01/24 07:25:45;;;;;;;12.32;6.57;;;1.60;99.90;;;;;;4910041;29;20240;-71
2021/01/24 07:28:15;;;;;;;12.88;6.95;;;1.60;99.90;;;;;;4911740;29;20048;-70
2021/01/24 07:30:41;;;;;;;16.15;7.32;;;1.50;99.90;;;;;;4911939;29;20033;-71
2021/01/24 07:33:08;;;;;;;16.60;7.28;;;1.40;99.90;;;;;;4910075;29;20032;-70
2021/01/24 07:35:35;;;;;;;17.13;8.05;;;1.40;99.90;;;;;;4910369;29;20028;-70
2021/01/24 07:38:02;;;;;;;18.77;6.00;;;1.40;99.90;;;;;;4911367;29;20059;-70
2021/01/24 07:40:28;;;;;;;12.98;6.50;;;1.40;99.90;;;;;;4912202;29;20112;-70
2021/01/24 07:42:55;;;;;;;20.88;7.95;;;1.40;99.90;;;;;;4912300;29;20039;-71
2021/01/24 07:45:21;;;;;;;12.25;7.30;;;1.40;99.90;;;;;;4912193;29;20389;-71
2021/01/24 07:47:48;;;;;;;19.45;7.70;;;1.30;99.90;;;;;;4909847;29;20039;-71
2021/01/24 07:50:15;;;;;;;13.50;6.65;;;1.30;99.90;;;;;;4910765;29;20034;-71
2021/01/24 07:52:41;;;;;;;16.60;7.78;;;1.30;99.90;;;;;;4904282;29;20400;-70
2021/01/24 07:55:10;;;;;;;12.75;6.30;;;1.30;99.90;;;;;;4898349;29;20029;-70
2021/01/24 07:57:37;;;;;;;14.90;7.28;;;1.30;99.90;;;;;;4893534;29;20533;-70
2021/01/24 08:00:08;;;;;;;15.65;8.25;;;1.40;99.90;;;;;;4893249;29;20032;-71
2021/01/24 08:02:35;;;;;;;12.98;7.22;;;1.40;99.90;;;;;;4892900;29;20401;-70
2021/01/24 08:05:03;;;;;;;14.15;7.88;;;1.40;99.90;;;;;;4893402;29;20115;-69
2021/01/24 08:07:29;;;;;;;17.65;8.10;;;1.40;99.90;;;;;;4893059;29;20061;-70
2021/01/24 08:09:56;;;;;;;15.57;8.18;;;1.50;99.90;;;;;;4892530;29;20035;-70
2021/01/24 08:12:22;;;;;;;18.42;8.75;;;1.60;99.90;;;;;;4892876;29;20032;-70
2021/01/24 08:14:48;;;;;;;17.95;7.93;;;1.60;99.90;;;;;;4892509;29;20025;-70
2021/01/24 08:17:17;;;;;;;17.08;8.27;;;1.70;99.90;;;;;;4892589;29;20045;-70
2021/01/24 08:19:44;;;;;;;13.43;7.35;;;1.70;99.90;;;;;;4902245;29;20052;-70
2021/01/24 08:22:10;;;;;;;18.20;7.13;;;1.60;99.90;;;;;;4897257;29;20028;-70
2021/01/24 08:24:37;;;;;;;12.90;6.68;;;1.60;99.90;;;;;;4899513;29;20029;-71
2021/01/24 08:27:04;;;;;;;15.10;7.28;;;1.60;99.90;;;;;;4897107;29;20412;-71
2021/01/24 08:29:35;;;;;;;17.25;8.18;;;1.60;99.90;;;;;;4894150;29;20124;-70
2021/01/24 08:32:03;;;;;;;18.23;8.57;;;1.60;99.90;;;;;;4906067;29;20033;-70
2021/01/24 08:34:29;;;;;;;16.10;7.85;;;1.60;99.90;;;;;;4911155;29;20028;-70
2021/01/24 08:36:56;;;;;;;19.65;9.85;;;1.60;99.90;;;;;;4909962;29;20474;-70
2021/01/24 08:39:23;;;;;;;28.35;12.82;;;1.70;99.90;;;;;;4892502;29;20036;-70
2021/01/24 08:41:50;;;;;;;27.95;12.57;;;1.80;99.90;;;;;;4890954;29;20028;-69
2021/01/24 08:44:16;;;;;;;21.15;10.07;;;1.90;99.90;;;;;;4892127;29;20467;-70
2021/01/24 08:46:50;;;;;;;20.08;8.90;;;1.90;99.90;;;;;;4892362;29;20053;-70
2021/01/24 08:49:28;;;;;;;18.60;9.03;;;1.90;99.90;;;;;;4892060;29;20026;-70
2021/01/24 08:52:21;;;;;;;21.55;8.65;;;2.00;99.90;;;;;;4891905;29;20032;-71
2021/01/24 08:55:00;;;;;;;17.25;7.78;;;2.00;99.90;;;;;;4891385;29;20093;-70
2021/01/24 08:57:33;;;;;;;15.48;7.43;;;2.00;99.90;;;;;;4891629;29;20048;-70
2021/01/24 09:00:02;;;;;;;;;;;2.00;99.90;;;;;;4892450;29;20033;-70
2021/01/24 09:02:42;;;;;;;15.13;7.38;;;2.00;99.90;;;;;;4891662;29;19907;-70
2021/01/24 09:05:35;;;;;;;17.42;7.45;;;2.00;99.90;;;;;;4891651;29;20395;-70
2021/01/24 09:08:01;;;;;;;13.93;8.20;;;2.00;99.90;;;;;;4891598;29;20035;-70
2021/01/24 09:10:31;;;;;;;23.13;9.82;;;2.00;99.90;;;;;;4891183;29;20028;-72
2021/01/24 09:12:59;;;;;;;14.02;7.57;;;2.10;99.90;;;;;;4891399;29;20033;-71
2021/01/24 09:15:36;;;;;;;16.30;7.60;;;2.10;99.90;;;;;;4900652;29;20044;-70
2021/01/24 09:18:02;;;;;;;14.95;7.65;;;2.10;99.90;;;;;;4900279;29;20049;-70
2021/01/24 09:20:35;;;;;;;17.50;7.57;;;2.20;99.90;;;;;;4895472;29;20064;-70
2021/01/24 09:23:01;;;;;;;14.98;7.68;;;2.30;99.90;;;;;;4908301;29;20041;-70
2021/01/24 09:25:26;;;;;;;21.88;7.93;;;2.30;99.90;;;;;;4900171;29;20079;-70
2021/01/24 09:27:52;;;;;;;22.00;9.02;;;2.40;99.90;;;;;;4894373;29;20078;-69
2021/01/24 09:30:18;;;;;;;21.30;8.27;;;2.40;99.90;;;;;;4897687;29;20024;-70
2021/01/24 09:32:44;;;;;;;14.02;6.97;;;2.50;99.90;;;;;;4906306;29;20246;-71
2021/01/24 09:35:10;;;;;;;13.25;7.93;;;2.60;99.90;;;;;;4890074;29;20025;-70
2021/01/24 09:37:37;;;;;;;14.43;8.13;;;2.60;99.90;;;;;;4903906;29;20064;-71
2021/01/24 09:40:05;;;;;;;19.15;8.55;;;2.70;99.90;;;;;;4910040;29;20033;-71
2021/01/24 09:42:31;;;;;;;22.77;8.38;;;2.80;99.90;;;;;;4909396;29;20033;-70
2021/01/24 09:44:56;;;;;;;15.27;7.50;;;2.90;99.90;;;;;;4894789;29;20049;-70
2021/01/24 09:47:22;;;;;;;17.88;9.55;;;3.00;99.90;;;;;;4891248;29;20036;-71
2021/01/24 09:49:47;;;;;;;18.77;9.20;;;3.10;99.90;;;;;;4891004;29;20039;-71
2021/01/24 09:52:13;;;;;;;18.92;8.13;;;3.20;99.90;;;;;;4890454;29;20041;-71
2021/01/24 09:54:38;;;;;;;17.00;8.27;;;3.30;99.90;;;;;;4891074;29;20033;-71
2021/01/24 09:57:04;;;;;;;16.05;7.18;;;3.40;99.90;;;;;;4890934;29;20048;-71
2021/01/24 09:59:30;;;;;;;17.52;7.95;;;3.50;99.90;;;;;;4891083;29;20033;-71
2021/01/24 10:01:56;;;;;;;17.13;8.00;;;3.50;99.90;;;;;;4897327;29;20504;-71
2021/01/24 10:04:21;;;;;;;17.92;7.30;;;3.70;99.90;;;;;;4912062;29;20091;-71
2021/01/24 10:06:47;;;;;;;12.77;7.90;;;3.80;99.90;;;;;;4909302;29;20036;-70
2021/01/24 10:09:12;;;;;;;17.13;7.97;;;3.90;99.90;;;;;;4909524;29;20061;-71
2021/01/24 10:11:38;;;;;;;14.85;8.32;;;4.00;99.90;;;;;;4909431;29;20528;-72
2021/01/24 10:14:04;;;;;;;13.32;7.40;;;4.20;99.90;;;;;;4909374;29;20033;-73
2021/01/24 10:16:30;;;;;;;13.10;7.50;;;4.20;99.90;;;;;;4909685;29;20112;-71
2021/01/24 10:18:56;;;;;;;13.95;7.32;;;4.20;99.90;;;;;;4909458;29;20033;-71
2021/01/24 10:21:22;;;;;;;23.05;9.52;;;4.20;99.90;;;;;;4909333;29;20039;-71
2021/01/24 10:23:48;;;;;;;13.35;6.88;;;4.10;99.90;;;;;;4909072;29;20028;-71
2021/01/24 10:26:14;;;;;;;18.42;8.10;;;4.10;99.90;;;;;;4909199;29;20036;-72
2021/01/24 10:28:40;;;;;;;15.75;6.85;;;4.10;99.90;;;;;;4906705;29;20063;-71
2021/01/24 10:31:07;;;;;;;15.77;8.05;;;4.10;99.90;;;;;;4899453;29;20036;-71
2021/01/24 10:33:33;;;;;;;16.73;9.90;;;4.00;99.90;;;;;;4902331;29;20029;-71
2021/01/24 10:35:59;;;;;;;17.90;8.57;;;3.90;99.90;;;;;;4890186;29;20041;-71
2021/01/24 10:38:25;;;;;;;25.58;9.77;;;4.00;99.90;;;;;;4893567;29;20084;-71
2021/01/24 10:40:51;;;;;;;20.38;9.73;;;3.90;99.90;;;;;;4907777;29;20033;-71
2021/01/24 10:43:17;;;;;;;18.40;9.18;;;3.80;99.90;;;;;;4908957;29;20045;-71
2021/01/24 10:45:44;;;;;;;18.90;9.00;;;3.80;99.90;;;;;;4906858;29;20029;-71
2021/01/24 10:48:10;;;;;;;18.88;9.43;;;3.80;99.90;;;;;;4907638;29;20048;-71
2021/01/24 10:50:37;;;;;;;20.75;10.63;;;3.80;99.90;;;;;;4908533;29;20457;-71
2021/01/24 10:53:04;;;;;;;26.10;9.13;;;3.80;99.90;;;;;;4907978;29;20039;-72
2021/01/24 10:55:29;;;;;;;21.85;10.18;;;4.10;99.90;;;;;;4911797;29;20089;-71
2021/01/24 10:57:55;;;;;;;18.23;8.40;;;4.20;99.90;;;;;;4911535;29;20108;-71
2021/01/24 11:00:21;;;;;;;22.85;9.40;;;4.60;99.90;;;;;;4912768;29;20031;-71
2021/01/24 11:02:46;;;;;;;17.90;8.57;;;5.20;99.90;;;;;;4912657;29;20045;-72
2021/01/24 11:05:12;;;;;;;16.70;7.03;;;5.50;99.90;;;;;;4912032;29;20033;-72
2021/01/24 11:07:38;;;;;;;16.63;8.45;;;5.90;99.90;;;;;;4910722;29;20021;-71
2021/01/24 11:10:05;;;;;;;15.23;7.32;;;6.40;99.90;;;;;;4912194;29;20036;-71
2021/01/24 11:12:31;;;;;;;15.95;8.45;;;6.90;99.90;;;;;;4912194;29;20029;-70
2021/01/24 11:14:57;;;;;;;13.85;8.48;;;7.20;99.90;;;;;;4912691;29;20035;-71
2021/01/24 11:17:22;;;;;;;15.50;7.65;;;7.30;99.90;;;;;;4911974;29;20040;-71
2021/01/24 11:19:51;;;;;;;16.60;9.43;;;7.20;99.90;;;;;;4912780;29;20036;-71
2021/01/24 11:22:17;;;;;;;16.70;8.57;;;7.10;99.90;;;;;;4912788;29;20028;-71
2021/01/24 11:24:43;;;;;;;19.48;8.32;;;7.00;99.90;;;;;;4912661;29;20111;-70
2021/01/24 11:27:09;;;;;;;13.45;7.30;;;6.90;99.90;;;;;;4911020;29;20157;-71
2021/01/24 11:29:36;;;;;;;17.42;8.57;;;6.80;99.90;;;;;;4912357;29;20029;-71
2021/01/24 11:32:02;;;;;;;13.65;7.45;;;6.80;99.90;;;;;;4912479;29;20059;-70
2021/01/24 11:34:27;;;;;;;11.10;6.82;;;6.70;99.90;;;;;;4912376;29;20028;-70
2021/01/24 11:36:53;;;;;;;16.00;8.80;;;6.60;99.90;;;;;;4911754;29;20096;-71
2021/01/24 11:39:20;;;;;;;16.60;7.32;;;6.70;99.90;;;;;;4912321;29;20048;-71
2021/01/24 11:41:45;;;;;;;14.63;7.72;;;7.00;99.90;;;;;;4912140;29;20025;-71
2021/01/24 11:44:11;;;;;;;15.65;8.23;;;7.30;99.90;;;;;;4911696;29;20107;-71
2021/01/24 11:46:38;;;;;;;14.85;7.50;;;7.70;99.90;;;;;;4912305;29;20057;-72
2021/01/24 11:49:04;;;;;;;13.48;7.72;;;8.10;99.90;;;;;;4911009;29;20500;-72
2021/01/24 11:51:30;;;;;;;12.57;7.13;;;8.30;99.90;;;;;;4911906;29;20038;-72
2021/01/24 11:53:55;;;;;;;15.45;8.00;;;8.50;99.90;;;;;;4912107;29;20037;-72
2021/01/24 11:56:21;;;;;;;14.82;7.75;;;8.80;99.90;;;;;;4912042;29;20029;-72
2021/01/24 11:58:47;;;;;;;18.08;7.95;;;8.70;99.90;;;;;;4911452;29;20052;-72
2021/01/24 12:01:14;;;;;;;16.13;7.32;;;8.80;99.90;;;;;;4911816;29;20114;-72
2021/01/24 12:03:41;;;;;;;11.77;7.32;;;9.00;99.90;;;;;;4911867;29;20031;-73
2021/01/24 12:06:07;;;;;;;17.05;7.88;;;9.40;99.90;;;;;;4910438;29;20465;-72
2021/01/24 12:08:33;;;;;;;13.63;8.27;;;9.90;99.90;;;;;;4911815;29;20037;-72
2021/01/24 12:10:58;;;;;;;12.43;6.82;;;10.10;99.90;;;;;;4911629;29;20061;-72
2021/01/24 12:13:24;;;;;;;17.13;7.95;;;10.10;99.90;;;;;;4911414;29;20036;-72
2021/01/24 12:15:49;;;;;;;13.95;7.07;;;10.00;99.90;;;;;;4911859;29;20029;-72
2021/01/24 12:18:15;;;;;;;15.05;7.25;;;10.00;99.90;;;;;;4911481;29;20044;-73
2021/01/24 12:20:41;;;;;;;12.63;6.88;;;10.00;99.90;;;;;;4910135;29;20029;-73
2021/01/24 12:23:07;;;;;;;12.82;5.50;;;10.20;99.90;;;;;;4911456;29;20035;-74
2021/01/24 12:25:32;;;;;;;7.97;3.65;;;10.30;99.90;;;;;;4910078;29;20040;-72
2021/01/24 12:27:58;;;;;;;7.70;4.18;;;9.90;99.90;;;;;;4915871;29;20063;-73
2021/01/24 12:30:24;;;;;;;5.45;2.75;;;9.60;99.90;;;;;;4930180;29;20076;-73
2021/01/24 12:32:49;;;;;;;6.30;3.30;;;9.20;99.90;;;;;;4930061;29;20024;-71
2021/01/24 12:35:15;;;;;;;6.93;3.38;;;8.60;99.90;;;;;;4928927;29;20038;-73
2021/01/24 12:37:40;;;;;;;6.63;3.90;;;7.90;99.90;;;;;;4930145;29;20047;-72
2021/01/24 12:40:07;;;;;;;5.80;3.20;;;7.50;99.90;;;;;;4928564;29;20028;-73
2021/01/24 12:42:35;;;;;;;6.93;3.15;;;7.20;99.90;;;;;;4929686;29;20032;-72
2021/01/24 12:45:01;;;;;;;4.57;2.58;;;7.10;99.90;;;;;;4928639;29;20035;-71
2021/01/24 12:47:26;;;;;;;8.10;3.50;;;7.20;99.90;;;;;;4929717;29;20051;-72
2021/01/24 12:49:52;;;;;;;9.98;3.90;;;7.30;99.90;;;;;;4929770;29;20028;-72
2021/01/24 12:52:18;;;;;;;6.53;3.08;;;7.20;99.90;;;;;;4928151;29;20469;-71